sensor_id;sensor_type;location;lat;lon;timestamp;pressure;altitude;pressure_sealevel;temperature;humidity
51617;BME280;37697;52.588;13.394;2022-12-07T00:01:42;100759.08;;;1.63;98.32
51617;BME280;37697;52.588;13.394;2022-12-07T00:06:46;100760.09;;;1.60;98.41
51617;BME280;37697;52.588;13.394;2022-12-07T00:11:50;100754.53;;;1.52;98.07
51617;BME280;37697;52.588;13.394;2022-12-07T00:16:51;100743.52;;;1.44;97.80
51617;BME280;37697;52.588;13.394;2022-12-07T00:21:52;100745.31;;;1.39;97.76
51617;BME280;37697;52.588;13.394;2022-12-07T00:26:53;100742.46;;;1.31;97.66
51617;BME280;37697;52.588;13.394;2022-12-07T00:31:53;100730.69;;;1.25;97.56
51617;BME280;37697;52.588;13.394;2022-12-07T00:36:54;100735.61;;;1.28;97.65
51617;BME280;37697;52.588;13.394;2022-12-07T00:41:55;100732.86;;;1.26;97.47
51617;BME280;37697;52.588;13.394;2022-12-07T00:46:56;100727.91;;;1.23;97.33
51617;BME280;37697;52.588;13.394;2022-12-07T00:51:56;100725.16;;;1.20;97.16
51617;BME280;37697;52.588;13.394;2022-12-07T00:56:57;100716.17;;;1.20;97.38
51617;BME280;37697;52.588;13.394;2022-12-07T01:01:58;100723.80;;;1.20;97.21
51617;BME280;37697;52.588;13.394;2022-12-07T01:06:59;100713.42;;;1.17;96.98
51617;BME280;37697;52.588;13.394;2022-12-07T01:11:59;100713.08;;;1.13;96.60
51617;BME280;37697;52.588;13.394;2022-12-07T01:17:00;100702.13;;;1.08;96.33
51617;BME280;37697;52.588;13.394;2022-12-07T01:22:01;100689.34;;;1.06;96.66
51617;BME280;37697;52.588;13.394;2022-12-07T01:27:01;100693.99;;;1.08;96.63
51617;BME280;37697;52.588;13.394;2022-12-07T01:32:02;100693.41;;;1.06;96.46
51617;BME280;37697;52.588;13.394;2022-12-07T01:37:03;100692.23;;;1.02;96.27
51617;BME280;37697;52.588;13.394;2022-12-07T01:42:03;100685.61;;;0.96;96.12
51617;BME280;37697;52.588;13.394;2022-12-07T01:47:04;100688.59;;;0.97;96.21
51617;BME280;37697;52.588;13.394;2022-12-07T01:52:21;100685.55;;;0.93;96.13
51617;BME280;37697;52.588;13.394;2022-12-07T01:57:24;100680.77;;;0.98;96.11
51617;BME280;37697;52.588;13.394;2022-12-07T02:02:27;100672.33;;;0.97;96.03
51617;BME280;37697;52.588;13.394;2022-12-07T02:07:36;100659.84;;;0.96;95.80
51617;BME280;37697;52.588;13.394;2022-12-07T02:12:38;100657.88;;;0.93;95.42
51617;BME280;37697;52.588;13.394;2022-12-07T02:17:59;100654.48;;;0.86;95.30
51617;BME280;37697;52.588;13.394;2022-12-07T02:29:23;100646.89;;;0.86;95.38
51617;BME280;37697;52.588;13.394;2022-12-07T02:34:34;100644.72;;;0.85;95.37
51617;BME280;37697;52.588;13.394;2022-12-07T02:39:57;100636.42;;;0.78;94.74
51617;BME280;37697;52.588;13.394;2022-12-07T02:45:01;100625.20;;;0.71;94.77
51617;BME280;37697;52.588;13.394;2022-12-07T02:50:04;100621.56;;;0.66;94.56
51617;BME280;37697;52.588;13.394;2022-12-07T02:55:07;100616.04;;;0.61;94.54
51617;BME280;37697;52.588;13.394;2022-12-07T03:00:11;100614.69;;;0.61;94.76
51617;BME280;37697;52.588;13.394;2022-12-07T03:10:56;100595.13;;;0.59;94.80
51617;BME280;37697;52.588;13.394;2022-12-07T03:16:14;100586.90;;;0.53;94.77
51617;BME280;37697;52.588;13.394;2022-12-07T03:21:18;100573.86;;;0.53;95.12
51617;BME280;37697;52.588;13.394;2022-12-07T03:26:23;100572.23;;;0.52;95.06
51617;BME280;37697;52.588;13.394;2022-12-07T03:31:43;100560.84;;;0.52;95.27
51617;BME280;37697;52.588;13.394;2022-12-07T03:36:53;100555.19;;;0.54;95.44
51617;BME280;37697;52.588;13.394;2022-12-07T03:41:57;100541.16;;;0.57;95.67
51617;BME280;37697;52.588;13.394;2022-12-07T03:52:44;100524.77;;;0.64;96.08
51617;BME280;37697;52.588;13.394;2022-12-07T03:57:52;100511.82;;;0.68;96.19
51617;BME280;37697;52.588;13.394;2022-12-07T04:02:55;100502.67;;;0.72;96.18
51617;BME280;37697;52.588;13.394;2022-12-07T04:07:56;100507.06;;;0.75;96.26
51617;BME280;37697;52.588;13.394;2022-12-07T04:12:57;100499.72;;;0.73;96.21
51617;BME280;37697;52.588;13.394;2022-12-07T04:17:58;100490.53;;;0.74;96.58
51617;BME280;37697;52.588;13.394;2022-12-07T04:22:58;100483.24;;;0.78;96.68
51617;BME280;37697;52.588;13.394;2022-12-07T04:27:59;100488.48;;;0.82;96.90
51617;BME280;37697;52.588;13.394;2022-12-07T04:33:00;100476.55;;;0.83;97.01
51617;BME280;37697;52.588;13.394;2022-12-07T04:38:00;100462.25;;;0.85;97.17
51617;BME280;37697;52.588;13.394;2022-12-07T04:43:01;100465.53;;;0.87;97.16
51617;BME280;37697;52.588;13.394;2022-12-07T04:48:02;100456.55;;;0.86;97.22
51617;BME280;37697;52.588;13.394;2022-12-07T04:53:02;100451.97;;;0.87;97.57
51617;BME280;37697;52.588;13.394;2022-12-07T04:58:03;100458.20;;;0.87;97.58
51617;BME280;37697;52.588;13.394;2022-12-07T05:03:04;100456.88;;;0.90;97.82
51617;BME280;37697;52.588;13.394;2022-12-07T05:08:05;100449.86;;;0.91;98.14
51617;BME280;37697;52.588;13.394;2022-12-07T05:13:06;100448.59;;;0.97;98.13
51617;BME280;37697;52.588;13.394;2022-12-07T05:18:06;100441.56;;;0.98;98.30
51617;BME280;37697;52.588;13.394;2022-12-07T05:23:07;100426.95;;;0.99;98.46
51617;BME280;37697;52.588;13.394;2022-12-07T05:28:08;100436.53;;;1.04;98.61
51617;BME280;37697;52.588;13.394;2022-12-07T05:33:09;100437.42;;;1.10;98.78
51617;BME280;37697;52.588;13.394;2022-12-07T05:38:10;100427.69;;;1.11;98.74
51617;BME280;37697;52.588;13.394;2022-12-07T05:43:10;100423.64;;;1.14;98.83
51617;BME280;37697;52.588;13.394;2022-12-07T05:48:11;100420.70;;;1.18;98.91
51617;BME280;37697;52.588;13.394;2022-12-07T05:53:12;100412.89;;;1.22;99.28
51617;BME280;37697;52.588;13.394;2022-12-07T05:58:12;100402.34;;;1.23;99.45
51617;BME280;37697;52.588;13.394;2022-12-07T06:03:32;100392.11;;;1.27;99.36
51617;BME280;37697;52.588;13.394;2022-12-07T06:08:33;100389.98;;;1.32;99.43
51617;BME280;37697;52.588;13.394;2022-12-07T06:13:34;100377.58;;;1.36;99.67
51617;BME280;37697;52.588;13.394;2022-12-07T06:18:34;100370.86;;;1.41;99.58
51617;BME280;37697;52.588;13.394;2022-12-07T06:23:35;100375.52;;;1.46;99.69
51617;BME280;37697;52.588;13.394;2022-12-07T06:28:36;100372.85;;;1.48;99.75
51617;BME280;37697;52.588;13.394;2022-12-07T06:33:36;100367.13;;;1.47;99.68
51617;BME280;37697;52.588;13.394;2022-12-07T06:38:37;100372.02;;;1.48;99.92
51617;BME280;37697;52.588;13.394;2022-12-07T06:43:38;100365.79;;;1.50;100.00
51617;BME280;37697;52.588;13.394;2022-12-07T06:48:39;100368.57;;;1.55;100.00
51617;BME280;37697;52.588;13.394;2022-12-07T06:53:41;100361.83;;;1.58;100.00
51617;BME280;37697;52.588;13.394;2022-12-07T06:58:42;100355.36;;;1.61;100.00
51617;BME280;37697;52.588;13.394;2022-12-07T07:03:44;100362.71;;;1.63;100.00
51617;BME280;37697;52.588;13.394;2022-12-07T07:08:45;100356.48;;;1.65;100.00
51617;BME280;37697;52.588;13.394;2022-12-07T07:13:46;100363.07;;;1.69;100.00
51617;BME280;37697;52.588;13.394;2022-12-07T07:18:47;100354.69;;;1.74;100.00
51617;BME280;37697;52.588;13.394;2022-12-07T07:23:48;100360.44;;;1.77;100.00
51617;BME280;37697;52.588;13.394;2022-12-07T07:28:49;100359.39;;;1.81;100.00
51617;BME280;37697;52.588;13.394;2022-12-07T07:33:50;100358.89;;;1.84;100.00
51617;BME280;37697;52.588;13.394;2022-12-07T07:38:51;100360.55;;;1.87;100.00
51617;BME280;37697;52.588;13.394;2022-12-07T07:43:51;100357.29;;;1.88;100.00
51617;BME280;37697;52.588;13.394;2022-12-07T07:48:52;100362.03;;;1.98;100.00
51617;BME280;37697;52.588;13.394;2022-12-07T07:53:53;100362.03;;;1.98;100.00
51617;BME280;37697;52.588;13.394;2022-12-07T07:58:54;100358.78;;;2.01;100.00
51617;BME280;37697;52.588;13.394;2022-12-07T08:03:55;100362.61;;;2.02;100.00
51617;BME280;37697;52.588;13.394;2022-12-07T08:08:56;100375.13;;;2.03;100.00
51617;BME280;37697;52.588;13.394;2022-12-07T08:13:58;100370.25;;;2.05;99.96
51617;BME280;37697;52.588;13.394;2022-12-07T08:18:58;100370.00;;;2.07;99.81
51617;BME280;37697;52.588;13.394;2022-12-07T08:23:59;100369.44;;;2.05;99.88
51617;BME280;37697;52.588;13.394;2022-12-07T08:29:00;100369.95;;;2.04;99.73
51617;BME280;37697;52.588;13.394;2022-12-07T08:34:00;100376.24;;;2.07;99.87
51617;BME280;37697;52.588;13.394;2022-12-07T08:39:01;100374.94;;;2.13;99.69
51617;BME280;37697;52.588;13.394;2022-12-07T08:44:02;100389.63;;;2.14;99.30
51617;BME280;37697;52.588;13.394;2022-12-07T08:54:15;100393.70;;;2.14;98.99
51617;BME280;37697;52.588;13.394;2022-12-07T08:59:17;100401.31;;;2.15;98.61
51617;BME280;37697;52.588;13.394;2022-12-07T09:04:19;100401.36;;;2.17;98.72
51617;BME280;37697;52.588;13.394;2022-12-07T09:09:20;100413.30;;;2.19;98.14
51617;BME280;37697;52.588;13.394;2022-12-07T09:14:21;100413.34;;;2.21;97.83
51617;BME280;37697;52.588;13.394;2022-12-07T09:19:22;100415.82;;;2.25;97.79
51617;BME280;37697;52.588;13.394;2022-12-07T09:24:23;100418.84;;;2.29;96.87
51617;BME280;37697;52.588;13.394;2022-12-07T09:29:24;100424.52;;;2.25;95.96
51617;BME280;37697;52.588;13.394;2022-12-07T09:34:25;100418.78;;;2.21;95.36
51617;BME280;37697;52.588;13.394;2022-12-07T09:39:27;100420.44;;;2.22;95.30
51617;BME280;37697;52.588;13.394;2022-12-07T09:44:28;100426.37;;;2.19;94.72
51617;BME280;37697;52.588;13.394;2022-12-07T09:49:30;100432.29;;;2.14;94.15
51617;BME280;37697;52.588;13.394;2022-12-07T09:54:31;100445.58;;;2.13;94.48
51617;BME280;37697;52.588;13.394;2022-12-07T09:59:38;100440.06;;;2.05;94.06
51617;BME280;37697;52.588;13.394;2022-12-07T10:04:42;100441.38;;;2.02;93.79
51617;BME280;37697;52.588;13.394;2022-12-07T10:09:45;100438.41;;;2.04;93.64
51617;BME280;37697;52.588;13.394;2022-12-07T10:15:04;100441.14;;;2.06;93.41
51617;BME280;37697;52.588;13.394;2022-12-07T10:20:19;100433.65;;;2.14;93.50
51617;BME280;37697;52.588;13.394;2022-12-07T10:25:23;100440.45;;;2.16;92.82
51617;BME280;37697;52.588;13.394;2022-12-07T10:30:26;100430.08;;;2.11;92.32
51617;BME280;37697;52.588;13.394;2022-12-07T10:35:29;100439.39;;;2.17;92.05
51617;BME280;37697;52.588;13.394;2022-12-07T10:40:35;100439.16;;;2.21;91.93
51617;BME280;37697;52.588;13.394;2022-12-07T10:45:45;100441.00;;;2.16;91.28
51617;BME280;37697;52.588;13.394;2022-12-07T10:56:32;100438.92;;;2.25;91.29
51617;BME280;37697;52.588;13.394;2022-12-07T11:02:17;100422.98;;;2.34;91.39
51617;BME280;37697;52.588;13.394;2022-12-07T11:13:04;100428.89;;;2.26;90.80
51617;BME280;37697;52.588;13.394;2022-12-07T11:18:36;100433.04;;;2.34;91.34
51617;BME280;37697;52.588;13.394;2022-12-07T11:34:52;100419.50;;;2.39;90.24
51617;BME280;37697;52.588;13.394;2022-12-07T11:40:17;100422.47;;;2.37;90.98
51617;BME280;37697;52.588;13.394;2022-12-07T11:45:26;100412.20;;;2.42;90.81
51617;BME280;37697;52.588;13.394;2022-12-07T11:55:57;100404.36;;;2.48;91.05
51617;BME280;37697;52.588;13.394;2022-12-07T12:06:44;100406.67;;;2.61;90.87
51617;BME280;37697;52.588;13.394;2022-12-07T12:11:56;100401.84;;;2.69;90.86
51617;BME280;37697;52.588;13.394;2022-12-07T12:22:45;100393.69;;;2.71;90.14
51617;BME280;37697;52.588;13.394;2022-12-07T12:27:48;100381.20;;;2.75;90.28
51617;BME280;37697;52.588;13.394;2022-12-07T12:32:51;100382.60;;;2.78;89.90
51617;BME280;37697;52.588;13.394;2022-12-07T12:37:53;100388.59;;;2.77;90.10
51617;BME280;37697;52.588;13.394;2022-12-07T12:42:56;100378.81;;;2.79;90.32
51617;BME280;37697;52.588;13.394;2022-12-07T12:48:26;100383.45;;;2.83;90.09
51617;BME280;37697;52.588;13.394;2022-12-07T12:53:27;100372.02;;;2.84;89.88
51617;BME280;37697;52.588;13.394;2022-12-07T12:58:34;100374.48;;;2.83;89.76
51617;BME280;37697;52.588;13.394;2022-12-07T13:03:36;100376.10;;;2.84;89.49
51617;BME280;37697;52.588;13.394;2022-12-07T13:08:40;100377.20;;;2.83;89.57
51617;BME280;37697;52.588;13.394;2022-12-07T13:13:41;100378.56;;;2.83;89.53
51617;BME280;37697;52.588;13.394;2022-12-07T13:18:42;100383.71;;;2.82;89.57
51617;BME280;37697;52.588;13.394;2022-12-07T13:28:58;100375.81;;;2.80;89.33
51617;BME280;37697;52.588;13.394;2022-12-07T13:39:45;100368.41;;;2.71;89.35
51617;BME280;37697;52.588;13.394;2022-12-07T13:44:48;100370.03;;;2.72;89.72
51617;BME280;37697;52.588;13.394;2022-12-07T13:49:51;100370.58;;;2.71;89.72
51617;BME280;37697;52.588;13.394;2022-12-07T13:55:05;100372.48;;;2.73;89.95
51617;BME280;37697;52.588;13.394;2022-12-07T14:00:20;100376.31;;;2.75;89.50
51617;BME280;37697;52.588;13.394;2022-12-07T14:05:29;100376.31;;;2.75;89.04
51617;BME280;37697;52.588;13.394;2022-12-07T14:10:42;100384.73;;;2.73;89.04
51617;BME280;37697;52.588;13.394;2022-12-07T14:15:51;100380.65;;;2.73;88.96
51617;BME280;37697;52.588;13.394;2022-12-07T14:26:20;100371.39;;;2.72;88.50
51617;BME280;37697;52.588;13.394;2022-12-07T14:31:21;100364.59;;;2.72;88.74
51617;BME280;37697;52.588;13.394;2022-12-07T14:36:24;100354.00;;;2.70;88.43
51617;BME280;37697;52.588;13.394;2022-12-07T14:41:25;100355.61;;;2.69;88.17
51617;BME280;37697;52.588;13.394;2022-12-07T14:46:44;100347.71;;;2.67;88.10
51617;BME280;37697;52.588;13.394;2022-12-07T14:51:46;100348.27;;;2.69;88.56
51617;BME280;37697;52.588;13.394;2022-12-07T14:56:47;100354.77;;;2.65;88.58
51617;BME280;37697;52.588;13.394;2022-12-07T15:01:50;100350.09;;;2.61;88.41
51617;BME280;37697;52.588;13.394;2022-12-07T15:06:57;100353.31;;;2.53;88.48
51617;BME280;37697;52.588;13.394;2022-12-07T15:11:58;100347.79;;;2.45;88.46
51617;BME280;37697;52.588;13.394;2022-12-07T15:16:59;100355.63;;;2.39;88.49
51617;BME280;37697;52.588;13.394;2022-12-07T15:21:59;100340.34;;;2.33;88.56
51617;BME280;37697;52.588;13.394;2022-12-07T15:27:00;100352.96;;;2.44;89.80
51617;BME280;37697;52.588;13.394;2022-12-07T15:32:01;100349.09;;;2.40;88.52
51617;BME280;37697;52.588;13.394;2022-12-07T15:37:02;100345.27;;;2.33;88.31
51617;BME280;37697;52.588;13.394;2022-12-07T15:42:03;100350.60;;;2.25;88.17
51617;BME280;37697;52.588;13.394;2022-12-07T15:47:05;100348.33;;;2.15;88.11
51617;BME280;37697;52.588;13.394;2022-12-07T15:52:06;100341.78;;;2.11;88.21
51617;BME280;37697;52.588;13.394;2022-12-07T15:57:07;100345.05;;;2.10;88.48
51617;BME280;37697;52.588;13.394;2022-12-07T16:02:09;100341.48;;;2.09;88.11
51617;BME280;37697;52.588;13.394;2022-12-07T16:07:10;100343.95;;;2.11;88.15
51617;BME280;37697;52.588;13.394;2022-12-07T16:12:12;100329.05;;;2.14;88.37
51617;BME280;37697;52.588;13.394;2022-12-07T16:17:14;100357.29;;;2.15;88.30
51617;BME280;37697;52.588;13.394;2022-12-07T16:22:14;100358.95;;;2.16;88.45
51617;BME280;37697;52.588;13.394;2022-12-07T16:27:15;100364.39;;;2.19;88.54
51617;BME280;37697;52.588;13.394;2022-12-07T16:32:16;100368.16;;;2.15;87.76
51617;BME280;37697;52.588;13.394;2022-12-07T16:37:17;100372.42;;;2.06;87.76
51617;BME280;37697;52.588;13.394;2022-12-07T16:42:17;100372.04;;;1.95;87.64
51617;BME280;37697;52.588;13.394;2022-12-07T16:47:18;100370.02;;;1.85;87.82
51617;BME280;37697;52.588;13.394;2022-12-07T16:52:19;100371.55;;;1.76;87.70
51617;BME280;37697;52.588;13.394;2022-12-07T16:57:21;100376.30;;;1.66;87.54
51617;BME280;37697;52.588;13.394;2022-12-07T17:02:21;100377.31;;;1.57;87.69
51617;BME280;37697;52.588;13.394;2022-12-07T17:07:22;100372.85;;;1.48;87.75
51617;BME280;37697;52.588;13.394;2022-12-07T17:12:23;100377.10;;;1.42;87.88
51617;BME280;37697;52.588;13.394;2022-12-07T17:17:23;100385.72;;;1.36;87.93
51617;BME280;37697;52.588;13.394;2022-12-07T17:22:24;100374.49;;;1.30;87.96
51617;BME280;37697;52.588;13.394;2022-12-07T17:27:25;100373.61;;;1.24;88.06
51617;BME280;37697;52.588;13.394;2022-12-07T17:32:25;100378.66;;;1.18;88.06
51617;BME280;37697;52.588;13.394;2022-12-07T17:37:26;100375.36;;;1.13;88.11
51617;BME280;37697;52.588;13.394;2022-12-07T17:42:27;100374.19;;;1.09;88.21
51617;BME280;37697;52.588;13.394;2022-12-07T17:47:37;100374.17;;;1.07;88.30
51617;BME280;37697;52.588;13.394;2022-12-07T17:52:39;100379.27;;;1.03;88.25
51617;BME280;37697;52.588;13.394;2022-12-07T17:57:59;100378.38;;;0.98;88.25
51617;BME280;37697;52.588;13.394;2022-12-07T18:02:59;100376.41;;;0.93;88.52
51617;BME280;37697;52.588;13.394;2022-12-07T18:08:00;100371.47;;;0.90;88.42
51617;BME280;37697;52.588;13.394;2022-12-07T18:13:00;100387.69;;;0.85;88.46
51617;BME280;37697;52.588;13.394;2022-12-07T18:18:20;100388.36;;;0.78;88.39
51617;BME280;37697;52.588;13.394;2022-12-07T18:23:20;100385.31;;;0.74;88.61
51617;BME280;37697;52.588;13.394;2022-12-07T18:28:21;100387.94;;;0.69;88.59
51617;BME280;37697;52.588;13.394;2022-12-07T18:33:22;100391.68;;;0.65;88.57
51617;BME280;37697;52.588;13.394;2022-12-07T18:38:23;100387.83;;;0.61;88.67
51617;BME280;37697;52.588;13.394;2022-12-07T18:43:24;100389.40;;;0.57;88.60
51617;BME280;37697;52.588;13.394;2022-12-07T18:48:24;100393.41;;;0.54;88.76
51617;BME280;37697;52.588;13.394;2022-12-07T18:53:26;100394.97;;;0.50;88.83
51617;BME280;37697;52.588;13.394;2022-12-07T18:58:27;100391.12;;;0.46;88.88
51617;BME280;37697;52.588;13.394;2022-12-07T19:03:29;100395.12;;;0.44;88.84
51617;BME280;37697;52.588;13.394;2022-12-07T19:08:32;100402.38;;;0.41;88.74
51617;BME280;37697;52.588;13.394;2022-12-07T19:13:34;100405.02;;;0.35;88.53
51617;BME280;37697;52.588;13.394;2022-12-07T19:18:35;100403.03;;;0.31;88.34
51617;BME280;37697;52.588;13.394;2022-12-07T19:23:37;100407.00;;;0.26;88.13
51617;BME280;37697;52.588;13.394;2022-12-07T19:28:39;100405.84;;;0.22;88.30
51617;BME280;37697;52.588;13.394;2022-12-07T19:33:39;100407.44;;;0.20;88.33
51617;BME280;37697;52.588;13.394;2022-12-07T19:38:41;100403.82;;;0.14;88.24
51617;BME280;37697;52.588;13.394;2022-12-07T19:43:42;100413.00;;;0.13;88.43
51617;BME280;37697;52.588;13.394;2022-12-07T19:48:43;100412.96;;;0.11;88.40
51617;BME280;37697;52.588;13.394;2022-12-07T19:53:44;100419.43;;;0.10;88.25
51617;BME280;37697;52.588;13.394;2022-12-07T19:58:46;100411.41;;;0.01;88.36
51617;BME280;37697;52.588;13.394;2022-12-07T20:03:47;100411.41;;;0.01;88.36
51617;BME280;37697;52.588;13.394;2022-12-07T20:08:49;100408.16;;;0.01;88.49
51617;BME280;37697;52.588;13.394;2022-12-07T20:13:51;100411.64;;;-0.01;88.48
51617;BME280;37697;52.588;13.394;2022-12-07T20:18:52;100409.75;;;-0.01;88.47
51617;BME280;37697;52.588;13.394;2022-12-07T20:23:53;100412.36;;;-0.06;88.33
51617;BME280;37697;52.588;13.394;2022-12-07T20:28:55;100416.14;;;-0.07;88.55
51617;BME280;37697;52.588;13.394;2022-12-07T20:33:56;100418.11;;;-0.02;88.85
51617;BME280;37697;52.588;13.394;2022-12-07T20:39:00;100415.70;;;-0.01;88.63
51617;BME280;37697;52.588;13.394;2022-12-07T20:44:02;100412.02;;;-0.09;88.50
51617;BME280;37697;52.588;13.394;2022-12-07T20:49:03;100408.69;;;-0.14;88.89
51617;BME280;37697;52.588;13.394;2022-12-07T20:54:04;100409.20;;;-0.14;88.98
51617;BME280;37697;52.588;13.394;2022-12-07T20:59:06;100407.84;;;-0.14;89.15
51617;BME280;37697;52.588;13.394;2022-12-07T21:04:12;100414.69;;;-0.12;89.31
51617;BME280;37697;52.588;13.394;2022-12-07T21:09:13;100422.91;;;-0.07;89.48
51617;BME280;37697;52.588;13.394;2022-12-07T21:14:14;100430.53;;;-0.04;89.53
51617;BME280;37697;52.588;13.394;2022-12-07T21:19:14;100425.89;;;-0.06;89.37
51617;BME280;37697;52.588;13.394;2022-12-07T21:24:15;100426.09;;;-0.10;89.49
51617;BME280;37697;52.588;13.394;2022-12-07T21:29:16;100419.45;;;-0.16;89.41
51617;BME280;37697;52.588;13.394;2022-12-07T21:34:17;100418.64;;;-0.17;89.74
51617;BME280;37697;52.588;13.394;2022-12-07T21:39:17;100415.39;;;-0.16;89.93
51617;BME280;37697;52.588;13.394;2022-12-07T21:44:18;100407.16;;;-0.22;89.95
51617;BME280;37697;52.588;13.394;2022-12-07T21:49:19;100413.66;;;-0.23;89.83
51617;BME280;37697;52.588;13.394;2022-12-07T21:54:19;100412.20;;;-0.28;90.06
51617;BME280;37697;52.588;13.394;2022-12-07T21:59:20;100410.27;;;-0.30;90.18
51617;BME280;37697;52.588;13.394;2022-12-07T22:04:23;100413.78;;;-0.29;90.23
51617;BME280;37697;52.588;13.394;2022-12-07T22:09:25;100417.78;;;-0.32;90.16
51617;BME280;37697;52.588;13.394;2022-12-07T22:14:28;100418.05;;;-0.33;90.33
51617;BME280;37697;52.588;13.394;2022-12-07T22:19:47;100419.39;;;-0.33;90.30
51617;BME280;37697;52.588;13.394;2022-12-07T22:24:48;100427.45;;;-0.36;90.15
51617;BME280;37697;52.588;13.394;2022-12-07T22:29:50;100424.86;;;-0.43;89.95
51617;BME280;37697;52.588;13.394;2022-12-07T22:34:50;100421.92;;;-0.41;90.23
51617;BME280;37697;52.588;13.394;2022-12-07T22:39:51;100434.17;;;-0.39;90.50
51617;BME280;37697;52.588;13.394;2022-12-07T22:44:52;100423.00;;;-0.42;90.89
51617;BME280;37697;52.588;13.394;2022-12-07T22:49:53;100423.85;;;-0.39;90.99
51617;BME280;37697;52.588;13.394;2022-12-07T22:54:54;100412.28;;;-0.37;90.93
51617;BME280;37697;52.588;13.394;2022-12-07T22:59:55;100407.15;;;-0.36;90.90
51617;BME280;37697;52.588;13.394;2022-12-07T23:04:56;100400.38;;;-0.36;90.80
51617;BME280;37697;52.588;13.394;2022-12-07T23:09:57;100394.97;;;-0.36;90.81
51617;BME280;37697;52.588;13.394;2022-12-07T23:14:57;100394.20;;;-0.34;90.69
51617;BME280;37697;52.588;13.394;2022-12-07T23:19:58;100410.67;;;-0.35;90.49
51617;BME280;37697;52.588;13.394;2022-12-07T23:24:58;100406.87;;;-0.37;90.50
51617;BME280;37697;52.588;13.394;2022-12-07T23:29:59;100404.98;;;-0.36;90.60
51617;BME280;37697;52.588;13.394;2022-12-07T23:35:00;100401.70;;;-0.39;90.52
51617;BME280;37697;52.588;13.394;2022-12-07T23:40:01;100398.92;;;-0.41;90.59
51617;BME280;37697;52.588;13.394;2022-12-07T23:45:02;100390.30;;;-0.41;90.66
51617;BME280;37697;52.588;13.394;2022-12-07T23:50:04;100383.77;;;-0.42;90.49
51617;BME280;37697;52.588;13.394;2022-12-07T23:55:06;100382.11;;;-0.43;90.73
